createdAt,value
2022-08-11T00:01:14.847Z,2.00
2022-08-11T00:03:50.018Z,1.92
2022-08-11T00:06:28.694Z,2.03
2022-08-11T00:08:59.238Z,2.40
2022-08-11T00:11:35.835Z,2.10
2022-08-11T00:14:13.635Z,2.22
2022-08-11T00:16:44.197Z,2.20
2022-08-11T00:19:14.475Z,2.20
2022-08-11T00:22:04.863Z,2.03
2022-08-11T00:24:49.359Z,2.35
2022-08-11T00:27:34.191Z,2.08
2022-08-11T00:30:04.611Z,2.17
2022-08-11T00:32:34.793Z,1.92
2022-08-11T00:35:54.533Z,2.10
2022-08-11T00:37:58.330Z,2.42
2022-08-11T00:40:35.993Z,2.28
2022-08-11T00:43:20.307Z,2.00
2022-08-11T00:46:12.525Z,1.90
2022-08-11T00:48:51.753Z,1.67
2022-08-11T00:52:04.993Z,2.10
2022-08-11T00:54:49.592Z,1.77
2022-08-11T00:57:48.831Z,2.22
2022-08-11T01:00:20.353Z,2.20
2022-08-11T01:03:19.201Z,2.25
2022-08-11T01:06:03.857Z,1.80
2022-08-11T01:09:22.221Z,1.90
2022-08-11T01:12:45.224Z,1.90
2022-08-11T01:15:55.836Z,2.05
2022-08-11T01:19:14.357Z,1.55
2022-08-11T01:22:20.433Z,2.10
2022-08-11T01:25:56.929Z,1.88
2022-08-11T01:29:06.427Z,1.88
2022-08-11T01:32:08.283Z,2.10
2022-08-11T01:35:16.780Z,1.75
2022-08-11T01:38:32.558Z,1.92
2022-08-11T01:41:51.449Z,1.92
2022-08-11T01:44:47.994Z,2.10
2022-08-11T01:47:52.971Z,1.92
2022-08-11T01:51:01.609Z,2.03
2022-08-11T01:53:51.467Z,2.38
2022-08-11T01:56:39.476Z,1.88
2022-08-11T01:59:17.165Z,1.73
2022-08-11T02:02:07.412Z,2.10
2022-08-11T02:04:42.345Z,1.67
2022-08-11T02:07:19.776Z,2.10
2022-08-11T02:10:36.575Z,1.95
2022-08-11T02:13:19.325Z,1.90
2022-08-11T02:16:17.688Z,1.85
2022-08-11T02:19:11.113Z,1.85
2022-08-11T02:22:04.999Z,1.63
2022-08-11T02:24:43.534Z,2.20
2022-08-11T02:27:23.340Z,2.00
2022-08-11T02:30:06.426Z,1.80
2022-08-11T02:33:00.586Z,2.00
2022-08-11T02:35:33.021Z,1.98
2022-08-11T02:38:15.876Z,1.90
2022-08-11T02:40:52.206Z,2.10
2022-08-11T02:43:36.400Z,1.75
2022-08-11T02:46:21.120Z,2.08
2022-08-11T02:49:19.641Z,2.05
2022-08-11T02:52:04.703Z,2.40
2022-08-11T02:54:40.818Z,2.10
2022-08-11T02:57:17.936Z,1.88
2022-08-11T02:59:54.897Z,2.13
2022-08-11T03:02:46.831Z,1.73
2022-08-11T03:05:35.019Z,1.88
2022-08-11T03:08:18.790Z,2.35
2022-08-11T03:11:15.969Z,1.92
2022-08-11T03:14:12.251Z,2.03
2022-08-11T03:16:53.077Z,2.00
2022-08-11T03:19:31.706Z,2.30
2022-08-11T03:22:11.131Z,2.25
2022-08-11T03:24:57.624Z,2.00
2022-08-11T03:27:38.088Z,1.98
2022-08-11T03:30:13.203Z,1.92
2022-08-11T03:33:09.148Z,2.35
2022-08-11T03:35:43.200Z,2.30
2022-08-11T03:38:16.398Z,1.95
2022-08-11T03:41:18.058Z,2.25
2022-08-11T03:44:09.233Z,2.45
2022-08-11T03:46:55.036Z,2.30
2022-08-11T03:49:39.410Z,2.65
2022-08-11T03:52:18.744Z,2.10
2022-08-11T03:54:57.041Z,2.28
2022-08-11T03:58:04.258Z,2.17
2022-08-11T04:01:21.664Z,2.33
2022-08-11T04:04:26.311Z,2.38
2022-08-11T04:07:25.645Z,2.40
2022-08-11T04:10:39.205Z,2.08
2022-08-11T04:13:42.460Z,2.30
2022-08-11T04:16:24.553Z,2.15
2022-08-11T04:19:25.031Z,2.50
2022-08-11T04:22:23.986Z,2.42
2022-08-11T04:25:57.974Z,2.40
2022-08-11T04:28:56.827Z,2.55
2022-08-11T04:31:44.268Z,2.00
2022-08-11T04:34:52.713Z,2.35
2022-08-11T04:37:44.577Z,2.33
2022-08-11T04:40:55.941Z,2.50
2022-08-11T04:44:10.247Z,2.20
2022-08-11T04:47:13.646Z,2.03
2022-08-11T04:50:17.437Z,2.42
2022-08-11T04:53:40.774Z,2.47
2022-08-11T04:56:33.184Z,2.50
2022-08-11T04:59:51.601Z,2.83
2022-08-11T05:03:01.602Z,2.30
2022-08-11T05:05:54.613Z,2.90
2022-08-11T05:08:56.554Z,2.50
2022-08-11T05:12:02.010Z,2.20
2022-08-11T05:14:57.674Z,3.03
2022-08-11T05:17:54.760Z,2.38
2022-08-11T05:20:44.701Z,2.95
2022-08-11T05:23:31.998Z,2.70
2022-08-11T05:26:47.853Z,2.72
2022-08-11T05:29:47.371Z,2.88
2022-08-11T05:32:43.212Z,2.20
2022-08-11T05:35:18.467Z,2.60
2022-08-11T05:38:21.829Z,2.50
2022-08-11T05:41:10.745Z,2.85
2022-08-11T05:44:20.146Z,2.40
2022-08-11T05:47:09.450Z,2.70
2022-08-11T05:49:58.330Z,2.30
2022-08-11T05:52:49.190Z,2.35
2022-08-11T05:55:51.039Z,2.60
2022-08-11T05:58:42.017Z,2.83
2022-08-11T06:01:14.164Z,2.50
2022-08-11T06:04:04.140Z,2.22
2022-08-11T06:06:35.388Z,2.22
2022-08-11T06:09:05.136Z,2.58
2022-08-11T06:11:43.941Z,2.72
2022-08-11T06:14:15.695Z,2.65
2022-08-11T06:16:49.045Z,2.20
2022-08-11T06:19:23.250Z,2.58
2022-08-11T06:21:54.838Z,2.47
2022-08-11T06:24:24.705Z,2.50
2022-08-11T06:27:11.856Z,2.58
2022-08-11T06:29:55.101Z,2.45
2022-08-11T06:32:27.588Z,2.80
2022-08-11T06:35:14.204Z,2.40
2022-08-11T06:37:58.707Z,2.40
2022-08-11T06:41:08.814Z,2.50
2022-08-11T06:43:55.876Z,2.78
2022-08-11T06:46:29.803Z,2.22
2022-08-11T06:49:02.559Z,2.40
2022-08-11T06:51:32.553Z,2.78
2022-08-11T06:54:06.015Z,2.53
2022-08-11T07:00:04.049Z,2.60
2022-08-11T07:02:35.828Z,3.30
2022-08-11T07:05:12.000Z,2.67
2022-08-11T07:08:36.066Z,3.17
2022-08-11T07:11:45.000Z,2.95
2022-08-11T07:14:38.446Z,3.45
2022-08-11T07:17:12.849Z,3.60
2022-08-11T07:20:01.810Z,4.00
2022-08-11T07:22:51.634Z,3.83
2022-08-11T07:25:55.644Z,3.40
2022-08-11T07:28:46.780Z,3.10
2022-08-11T07:31:21.743Z,3.55
2022-08-11T07:34:05.383Z,3.90
2022-08-11T07:36:42.065Z,3.00
2022-08-11T07:39:18.051Z,3.00
2022-08-11T07:41:48.611Z,3.20
2022-08-11T07:44:20.137Z,4.07
2022-08-11T07:47:08.549Z,3.45
2022-08-11T07:49:57.507Z,3.00
2022-08-11T07:52:34.299Z,3.53
2022-08-11T07:55:06.441Z,3.13
2022-08-11T07:58:14.958Z,3.30
2022-08-11T08:01:10.754Z,3.17
2022-08-11T08:04:08.442Z,3.50
2022-08-11T08:06:56.581Z,2.88
2022-08-11T08:09:44.865Z,3.30
2022-08-11T08:12:32.546Z,3.08
2022-08-11T08:15:24.955Z,3.33
2022-08-11T08:18:20.512Z,2.95
2022-08-11T08:20:50.516Z,3.22
2022-08-11T08:23:33.774Z,3.22
2022-08-11T08:26:16.865Z,3.10
2022-08-11T08:28:47.657Z,2.90
2022-08-11T08:31:16.567Z,3.38
2022-08-11T08:33:47.736Z,3.15
2022-08-11T08:36:17.298Z,2.88
2022-08-11T08:38:50.687Z,2.90
2022-08-11T08:41:24.444Z,3.17
2022-08-11T08:44:05.889Z,2.83
2022-08-11T08:46:50.737Z,3.15
2022-08-11T08:49:25.095Z,2.90
2022-08-11T08:52:01.268Z,2.83
2022-08-11T08:54:47.388Z,2.92
2022-08-11T08:57:18.853Z,2.72
2022-08-11T08:59:51.646Z,2.97
2022-08-11T09:02:34.047Z,2.50
2022-08-11T09:05:08.052Z,2.70
2022-08-11T09:07:39.071Z,2.80
2022-08-11T09:10:12.263Z,2.72
2022-08-11T09:12:43.919Z,3.00
2022-08-11T09:15:19.609Z,2.90
2022-08-11T09:17:51.631Z,2.38
2022-08-11T09:20:25.300Z,2.63
2022-08-11T09:26:30.759Z,2.40
2022-08-11T09:29:01.855Z,2.40
2022-08-11T09:31:39.469Z,2.60
2022-08-11T09:34:11.265Z,2.70
2022-08-11T09:37:01.810Z,2.38
2022-08-11T09:39:51.020Z,2.45
2022-08-11T09:42:24.002Z,2.78
2022-08-11T09:44:54.141Z,2.83
2022-08-11T09:47:26.889Z,2.22
2022-08-11T09:50:00.668Z,2.60
2022-08-11T09:52:37.193Z,2.50
2022-08-11T09:55:11.384Z,2.80
2022-08-11T09:57:59.797Z,3.30
2022-08-11T10:00:37.386Z,2.28
2022-08-11T10:03:11.222Z,2.50
2022-08-11T10:06:07.733Z,2.50
2022-08-11T10:08:42.134Z,2.55
2022-08-11T10:11:13.617Z,2.28
2022-08-11T10:14:32.826Z,2.30
2022-08-11T10:16:49.703Z,2.28
2022-08-11T10:19:22.217Z,2.00
2022-08-11T10:22:07.945Z,2.22
2022-08-11T10:24:56.933Z,2.42
2022-08-11T10:28:16.903Z,2.05
2022-08-11T10:30:34.250Z,2.30
2022-08-11T10:33:37.526Z,2.00
2022-08-11T10:36:15.957Z,2.42
2022-08-11T10:38:51.552Z,1.95
2022-08-11T10:42:03.315Z,2.38
2022-08-11T10:44:29.563Z,2.30
2022-08-11T10:47:16.717Z,2.20
2022-08-11T10:50:06.141Z,2.08
2022-08-11T10:52:55.701Z,2.30
2022-08-11T10:55:43.037Z,2.53
2022-08-11T10:58:31.587Z,2.70
2022-08-11T11:01:02.066Z,2.70
2022-08-11T11:03:35.522Z,2.63
2022-08-11T11:06:27.277Z,2.70
2022-08-11T11:09:05.315Z,3.17
2022-08-11T11:12:03.597Z,2.50
2022-08-11T11:14:58.846Z,2.92
2022-08-11T11:17:51.023Z,2.60
2022-08-11T11:20:34.680Z,2.40
2022-08-11T11:23:11.444Z,2.92
2022-08-11T11:26:11.260Z,3.13
2022-08-11T11:29:04.377Z,2.90
2022-08-11T11:31:44.813Z,2.92
2022-08-11T11:34:24.987Z,2.80
2022-08-11T11:36:58.331Z,3.00
2022-08-11T11:39:33.635Z,2.80
2022-08-11T11:42:06.627Z,3.13
2022-08-11T11:44:38.269Z,3.40
2022-08-11T11:47:09.937Z,3.03
2022-08-11T11:49:40.343Z,2.60
2022-08-11T11:52:14.779Z,2.90
2022-08-11T11:54:44.409Z,3.05
2022-08-11T11:57:33.094Z,2.80
2022-08-11T12:00:20.283Z,2.42
2022-08-11T12:02:52.706Z,2.63
2022-08-11T12:05:23.593Z,2.50
2022-08-11T12:08:13.413Z,2.80
2022-08-11T12:10:47.279Z,2.63
2022-08-11T12:13:35.973Z,3.00
2022-08-11T12:16:35.713Z,2.67
2022-08-11T12:18:59.485Z,2.60
2022-08-11T12:21:29.936Z,2.75
2022-08-11T12:24:19.344Z,2.60
2022-08-11T12:27:17.062Z,2.83
2022-08-11T12:29:55.073Z,2.65
2022-08-11T12:32:27.260Z,2.50
2022-08-11T12:34:58.238Z,2.40
2022-08-11T12:37:32.380Z,2.50
2022-08-11T12:40:43.030Z,2.40
2022-08-11T12:43:38.785Z,2.80
2022-08-11T12:46:11.312Z,2.60
2022-08-11T12:49:06.328Z,2.45
2022-08-11T12:52:06.760Z,2.60
2022-08-11T12:55:00.068Z,2.58
2022-08-11T12:57:51.056Z,2.72
2022-08-11T13:00:39.139Z,2.30
2022-08-11T13:03:28.393Z,2.60
2022-08-11T13:05:59.052Z,2.60
2022-08-11T13:08:32.994Z,2.63
2022-08-11T13:11:20.284Z,2.25
2022-08-11T13:13:57.091Z,2.47
2022-08-11T13:16:30.435Z,2.50
2022-08-11T13:19:01.780Z,2.25
2022-08-11T13:21:31.984Z,2.30
2022-08-11T13:24:03.828Z,2.28
2022-08-11T13:26:43.619Z,2.30
2022-08-11T13:29:19.975Z,2.47
2022-08-11T13:31:50.125Z,2.53
2022-08-11T13:34:21.152Z,2.20
2022-08-11T13:36:53.223Z,2.60
2022-08-11T13:39:25.220Z,2.20
2022-08-11T13:41:57.147Z,2.50
2022-08-11T13:44:28.528Z,2.28
2022-08-11T13:47:01.707Z,2.38
2022-08-11T13:49:32.273Z,2.50
2022-08-11T13:52:04.255Z,2.25
2022-08-11T13:54:38.629Z,1.95
2022-08-11T13:57:13.843Z,2.30
2022-08-11T14:00:14.550Z,2.30
2022-08-11T14:02:57.182Z,2.13
2022-08-11T14:05:29.780Z,2.33
2022-08-11T14:08:02.460Z,2.40
2022-08-11T14:10:35.244Z,2.28
2022-08-11T14:13:41.194Z,2.00
2022-08-11T14:16:18.714Z,2.38
2022-08-11T14:18:52.058Z,2.13
2022-08-11T14:21:42.332Z,1.95
2022-08-11T14:24:13.075Z,2.10
2022-08-11T14:26:45.552Z,2.00
2022-08-11T14:29:17.418Z,2.10
2022-08-11T14:31:49.140Z,1.75
2022-08-11T14:34:21.719Z,2.25
2022-08-11T14:36:53.432Z,2.25
2022-08-11T14:39:26.176Z,2.25
2022-08-11T14:42:16.538Z,2.10
2022-08-11T14:45:25.504Z,1.80
2022-08-11T14:48:15.385Z,2.03
2022-08-11T14:50:45.257Z,2.17
2022-08-11T14:53:17.843Z,1.80
2022-08-11T14:56:05.724Z,2.03
2022-08-11T14:58:37.793Z,2.00
2022-08-11T15:01:27.731Z,2.15
2022-08-11T15:04:34.365Z,2.17
2022-08-11T15:06:46.971Z,1.90
2022-08-11T15:09:17.169Z,1.92
2022-08-11T15:12:04.320Z,2.20
2022-08-11T15:14:56.078Z,2.70
2022-08-11T15:17:26.529Z,2.50
2022-08-11T15:20:34.340Z,2.15
2022-08-11T15:23:21.382Z,2.15
2022-08-11T15:25:56.574Z,2.17
2022-08-11T15:28:45.437Z,2.33
2022-08-11T15:31:35.314Z,2.15
2022-08-11T15:34:25.161Z,2.45
2022-08-11T15:37:18.712Z,2.03
2022-08-11T15:40:31.599Z,2.63
2022-08-11T15:43:20.235Z,2.10
2022-08-11T15:45:54.184Z,2.53
2022-08-11T15:48:35.799Z,2.30
2022-08-11T15:51:10.935Z,2.10
2022-08-11T15:53:56.574Z,2.00
2022-08-11T15:56:29.601Z,2.38
2022-08-11T15:59:42.603Z,2.60
2022-08-11T16:02:32.162Z,2.20
2022-08-11T16:05:07.468Z,2.00
2022-08-11T16:07:40.798Z,2.10
2022-08-11T16:10:17.938Z,2.10
2022-08-11T16:13:13.095Z,2.17
2022-08-11T16:16:22.233Z,2.10
2022-08-11T16:18:56.670Z,2.20
2022-08-11T16:21:33.771Z,2.28
2022-08-11T16:24:08.863Z,2.25
2022-08-11T16:27:10.235Z,2.08
2022-08-11T16:29:45.734Z,2.30
2022-08-11T16:32:18.781Z,2.20
2022-08-11T16:35:09.869Z,1.98
2022-08-11T16:37:59.564Z,2.30
2022-08-11T16:40:29.697Z,2.22
2022-08-11T16:43:17.605Z,2.20
2022-08-11T16:46:05.325Z,1.83
2022-08-11T16:48:38.636Z,2.28
2022-08-11T16:51:08.879Z,2.20
2022-08-11T16:53:59.986Z,2.22
2022-08-11T16:56:33.805Z,2.15
2022-08-11T16:59:16.552Z,1.90
2022-08-11T17:01:55.119Z,1.95
2022-08-11T17:04:50.216Z,2.08
2022-08-11T17:07:42.999Z,2.10
2022-08-11T17:10:52.716Z,1.73
2022-08-11T17:13:30.595Z,1.95
2022-08-11T17:16:11.931Z,2.10
2022-08-11T17:18:52.716Z,2.47
2022-08-11T17:21:27.581Z,1.73
2022-08-11T17:24:02.797Z,2.40
2022-08-11T17:26:57.218Z,2.10
2022-08-11T17:29:30.024Z,1.90
2022-08-11T17:32:18.007Z,2.10
2022-08-11T17:35:06.740Z,2.20
2022-08-11T17:37:38.166Z,1.50
2022-08-11T17:40:11.381Z,1.90
2022-08-11T17:43:02.751Z,1.77
2022-08-11T17:45:55.755Z,1.75
2022-08-11T17:48:28.786Z,1.95
2022-08-11T17:51:00.505Z,2.15
2022-08-11T17:54:24.730Z,1.88
2022-08-11T17:56:57.328Z,1.90
2022-08-11T17:59:54.257Z,1.85
2022-08-11T18:02:44.920Z,2.03
2022-08-11T18:05:17.500Z,2.00
2022-08-11T18:08:05.647Z,1.88
2022-08-11T18:10:53.204Z,1.80
2022-08-11T18:13:41.867Z,1.98
2022-08-11T18:16:30.806Z,1.90
2022-08-11T18:19:17.582Z,2.00
2022-08-11T18:22:13.023Z,2.15
2022-08-11T18:25:05.992Z,1.65
2022-08-11T18:27:54.967Z,2.00
2022-08-11T18:30:42.767Z,2.08
2022-08-11T18:33:56.914Z,1.77
2022-08-11T18:36:45.657Z,1.92
2022-08-11T18:39:34.222Z,1.88
2022-08-11T18:42:29.309Z,1.80
2022-08-11T18:45:20.232Z,1.95
2022-08-11T18:48:11.567Z,2.03
2022-08-11T18:51:31.248Z,2.00
2022-08-11T18:54:16.710Z,1.80
2022-08-11T18:57:05.890Z,2.33
2022-08-11T18:59:56.676Z,2.08
2022-08-11T19:02:49.344Z,2.10
2022-08-11T19:06:32.205Z,2.03
2022-08-11T19:08:50.005Z,2.10
2022-08-11T19:11:43.491Z,2.30
2022-08-11T19:14:31.834Z,2.40
2022-08-11T19:17:43.546Z,2.40
2022-08-11T19:20:38.783Z,2.40
2022-08-11T19:23:28.635Z,2.42
2022-08-11T19:26:18.354Z,2.58
2022-08-11T19:29:07.711Z,2.45
2022-08-11T19:31:56.175Z,2.60
2022-08-11T19:34:44.230Z,2.53
2022-08-11T19:37:31.489Z,2.30
2022-08-11T19:40:22.683Z,2.40
2022-08-11T19:43:23.514Z,2.30
2022-08-11T19:46:16.190Z,2.45
2022-08-11T19:49:05.096Z,2.20
2022-08-11T19:51:53.619Z,2.70
2022-08-11T19:54:44.539Z,2.60
2022-08-11T19:57:38.763Z,2.00
2022-08-11T20:00:32.520Z,2.42
2022-08-11T20:03:30.179Z,2.58
2022-08-11T20:06:20.747Z,2.30
2022-08-11T20:09:09.067Z,2.38
2022-08-11T20:12:00.332Z,2.20
2022-08-11T20:14:49.509Z,2.47
2022-08-11T20:17:39.614Z,2.58
2022-08-11T20:20:28.722Z,2.58
2022-08-11T20:23:17.553Z,2.85
2022-08-11T20:26:29.788Z,3.03
2022-08-11T20:29:17.778Z,2.85
2022-08-11T20:32:06.702Z,2.83
2022-08-11T20:34:59.323Z,2.60
2022-08-11T20:37:51.072Z,2.78
2022-08-11T20:40:40.795Z,2.65
2022-08-11T20:44:08.159Z,2.67
2022-08-11T20:46:41.449Z,2.50
2022-08-11T20:49:40.648Z,2.70
2022-08-11T20:52:36.210Z,2.60
2022-08-11T20:55:26.147Z,2.58
2022-08-11T20:58:48.015Z,2.63
2022-08-11T21:01:41.341Z,2.88
2022-08-11T21:04:28.999Z,2.38
2022-08-11T21:07:27.707Z,2.50
2022-08-11T21:10:29.279Z,2.40
2022-08-11T21:13:24.102Z,2.60
2022-08-11T21:16:25.791Z,2.35
2022-08-11T21:20:06.571Z,2.25
2022-08-11T21:22:28.441Z,2.35
2022-08-11T21:25:17.330Z,2.30
2022-08-11T21:28:08.753Z,2.40
2022-08-11T21:30:57.599Z,2.28
2022-08-11T21:33:48.912Z,2.47
2022-08-11T21:36:37.479Z,2.22
2022-08-11T21:39:25.848Z,2.17
2022-08-11T21:42:13.800Z,2.15
2022-08-11T21:45:03.750Z,2.00
2022-08-11T21:48:01.234Z,2.42
2022-08-11T21:50:48.258Z,2.88
2022-08-11T21:53:35.060Z,2.10
2022-08-11T21:56:26.231Z,1.98
2022-08-11T21:59:16.426Z,2.20
2022-08-11T22:02:11.908Z,2.30
2022-08-11T22:05:00.261Z,2.08
2022-08-11T22:07:47.670Z,2.08
2022-08-11T22:10:41.134Z,2.33
2022-08-11T22:13:30.962Z,2.03
2022-08-11T22:16:17.969Z,2.28
2022-08-11T22:19:09.377Z,2.20
2022-08-11T22:22:04.270Z,2.00
2022-08-11T22:24:55.084Z,2.17
2022-08-11T22:27:42.294Z,2.10
2022-08-11T22:30:30.190Z,2.00
2022-08-11T22:33:21.778Z,2.10
2022-08-11T22:36:16.372Z,2.38
2022-08-11T22:39:05.109Z,1.95
2022-08-11T22:41:51.931Z,1.80
2022-08-11T22:44:38.728Z,2.03
2022-08-11T22:47:29.424Z,2.17
2022-08-11T22:50:28.438Z,2.28
2022-08-11T22:53:17.603Z,2.20
2022-08-11T22:56:05.331Z,2.13
2022-08-11T22:58:53.377Z,2.38
2022-08-11T23:01:54.749Z,2.00
2022-08-11T23:04:43.176Z,2.22
2022-08-11T23:07:51.119Z,2.20
2022-08-11T23:10:39.392Z,2.10
2022-08-11T23:13:27.060Z,2.25
2022-08-11T23:16:14.267Z,2.20
2022-08-11T23:19:01.916Z,2.08
2022-08-11T23:21:50.351Z,2.10
2022-08-11T23:24:37.969Z,2.03
2022-08-11T23:27:27.968Z,1.90
2022-08-11T23:30:17.259Z,2.17
2022-08-11T23:33:10.034Z,2.10
2022-08-11T23:36:04.427Z,2.10
2022-08-11T23:38:51.608Z,2.00
2022-08-11T23:41:38.932Z,2.00
2022-08-11T23:44:27.887Z,1.90
2022-08-11T23:47:17.528Z,2.30
2022-08-11T23:50:05.719Z,2.20
2022-08-11T23:52:52.968Z,1.80
2022-08-11T23:55:39.861Z,1.90
2022-08-11T23:58:26.683Z,2.08
